Kwajalein/Bucholz, Marshall Islands
Current Conditions -  °F | °C
As of 6:40 PM on Thursday 27 Nov 2014 (Local Time) from PKWA Reporting Station
Scattered Clouds Scattered Clouds  
Wind Chill: 29°   Ceiling: Unl
Heat Index: 32°   Visibility: 10mi
Dew Point: 22°   Wind: 17mph
Humidity: 69%   Direction: 60°ENE
Pressure: 29.76"   Gusts: NA
Location:  8.73°N, 167.73°E
Report Text: PKWA 270640Z AUTO 06015KT 10SM SCT030 29/22 A2976 RMK AO2 T02870224
Loading
Personal Weather Stations






























Interactive Weather Map New forecast layout! Learn more

10-Day Weather Forecast

Advertisements
Track Severe Weather on mobile